Time;durP1;ratioP1;P1;durP2;ratioP2;P2;SDS_P1;SDS_P2;PMS_P1;PMS_P2;Temp;Humidity;BMP_temperature;BMP_pressure;BME280_temperature;BME280_humidity;BME280_pressure;Samples;Min_cycle;Max_cycle;Signal;HPM_P1;HPM_P2
2021/09/21 00:00:25;;;;;;;1.98;1.83;;;12.10;99.90;;;;;;6171341;23;20421;-91
2021/09/21 00:03:09;;;;;;;1.55;1.30;;;12.10;99.90;;;;;;6212616;23;20538;-90
2021/09/21 00:05:54;;;;;;;1.80;1.70;;;12.10;99.90;;;;;;6193517;23;20358;-89
2021/09/21 00:08:38;;;;;;;1.65;1.55;;;12.10;99.90;;;;;;6172725;23;20386;-88
2021/09/21 00:11:23;;;;;;;2.25;2.05;;;12.10;99.90;;;;;;6194037;23;20366;-86
2021/09/21 00:14:07;;;;;;;1.73;1.63;;;12.00;99.90;;;;;;6214212;23;20343;-88
2021/09/21 00:16:51;;;;;;;2.00;1.90;;;12.10;99.90;;;;;;6193402;23;20358;-91
2021/09/21 00:19:36;;;;;;;1.80;1.70;;;12.00;99.90;;;;;;6214169;23;20394;-89
2021/09/21 00:22:20;;;;;;;1.63;1.53;;;12.00;99.90;;;;;;6173754;23;20371;-90
2021/09/21 00:25:05;;;;;;;1.60;1.50;;;12.00;99.90;;;;;;6171419;23;20354;-89
2021/09/21 00:27:49;;;;;;;1.60;1.50;;;12.10;99.90;;;;;;6194538;23;20358;-89
2021/09/21 00:30:51;;;;;;;1.80;1.70;;;12.10;99.90;;;;;;6176584;23;20362;-89
2021/09/21 00:33:47;;;;;;;1.60;1.50;;;12.10;99.90;;;;;;6177302;23;20525;-85
2021/09/21 00:36:35;;;;;;;1.70;1.60;;;12.10;99.90;;;;;;6197151;23;20400;-87
2021/09/21 00:39:20;;;;;;;1.55;1.45;;;12.10;99.90;;;;;;6194507;23;20406;-84
2021/09/21 00:42:05;;;;;;;2.13;2.00;;;12.10;99.90;;;;;;6192926;23;20355;-89
2021/09/21 00:44:56;;;;;;;3.20;1.83;;;12.00;99.90;;;;;;6194675;23;20382;-90
2021/09/21 00:47:40;;;;;;;2.13;1.98;;;12.00;99.90;;;;;;6236278;23;20350;-90
2021/09/21 00:50:28;;;;;;;1.90;1.80;;;11.90;99.90;;;;;;6171043;23;20358;-90
2021/09/21 00:53:12;;;;;;;2.10;1.90;;;11.90;99.90;;;;;;6193482;23;20382;-86
2021/09/21 00:55:57;;;;;;;1.83;1.73;;;11.80;99.90;;;;;;6214383;23;20383;-88
2021/09/21 00:58:41;;;;;;;1.77;1.67;;;11.80;99.90;;;;;;6193238;23;20379;-82
2021/09/21 01:01:25;;;;;;;1.97;1.87;;;11.80;99.90;;;;;;6172091;23;20375;-89
2021/09/21 01:04:10;;;;;;;1.90;1.80;;;11.80;99.90;;;;;;6172701;23;20369;-88
2021/09/21 01:06:55;;;;;;;2.10;1.87;;;11.80;99.90;;;;;;6172661;23;20429;-89
2021/09/21 01:09:42;;;;;;;1.67;1.58;;;11.80;99.90;;;;;;6214717;23;20361;-87
2021/09/21 01:12:26;;;;;;;2.08;1.88;;;11.80;99.90;;;;;;6214249;23;20362;-86
2021/09/21 01:15:11;;;;;;;1.80;1.70;;;11.80;99.90;;;;;;6193252;23;20398;-88
2021/09/21 01:17:57;;;;;;;1.83;1.73;;;11.90;99.90;;;;;;6171620;23;20417;-89
2021/09/21 01:20:42;;;;;;;1.83;1.73;;;11.80;99.90;;;;;;6172721;23;20629;-86
2021/09/21 01:23:26;;;;;;;1.73;1.63;;;11.80;99.90;;;;;;6171511;23;20370;-85
2021/09/21 01:26:11;;;;;;;1.85;1.73;;;11.80;99.90;;;;;;6192257;23;20431;-87
2021/09/21 01:28:55;;;;;;;1.63;1.52;;;11.80;99.90;;;;;;6193539;23;20415;-90
2021/09/21 01:31:40;;;;;;;2.00;1.80;;;11.80;99.90;;;;;;6172089;23;20418;-91
2021/09/21 01:34:25;;;;;;;2.10;1.90;;;11.80;99.90;;;;;;6172189;23;20355;-89
2021/09/21 01:37:12;;;;;;;2.05;1.50;;;11.70;99.90;;;;;;6214771;23;20378;-88
2021/09/21 01:39:56;;;;;;;2.42;2.10;;;11.70;99.90;;;;;;6193837;23;20423;-88
2021/09/21 01:42:43;;;;;;;1.70;1.60;;;11.70;99.90;;;;;;6173055;23;20375;-88
2021/09/21 01:45:27;;;;;;;2.35;2.17;;;11.70;99.90;;;;;;6193691;23;20481;-89
2021/09/21 01:48:12;;;;;;;1.75;1.65;;;11.70;99.90;;;;;;6193451;23;20374;-88
2021/09/21 01:51:11;;;;;;;1.52;1.42;;;11.70;99.90;;;;;;6173166;23;20381;-89
2021/09/21 02:00:04;;;;;;;2.60;2.40;;;11.70;99.90;;;;;;6200572;23;20435;-90
2021/09/21 02:02:56;;;;;;;2.10;2.00;;;11.60;99.90;;;;;;6192592;22;20389;-87
2021/09/21 02:05:41;;;;;;;1.92;1.73;;;11.50;99.90;;;;;;6192370;23;20354;-88
2021/09/21 02:08:25;;;;;;;2.47;1.80;;;11.50;99.90;;;;;;6192799;23;20363;-88
2021/09/21 02:11:09;;;;;;;1.80;1.70;;;11.60;99.90;;;;;;6213631;23;20382;-89
2021/09/21 02:13:57;;;;;;;2.00;1.90;;;11.60;99.90;;;;;;6171030;23;20370;-88
2021/09/21 02:16:42;;;;;;;1.60;1.50;;;11.60;99.90;;;;;;6194098;23;20359;-88
2021/09/21 02:19:26;;;;;;;2.08;1.88;;;11.60;99.90;;;;;;6171799;23;20386;-86
2021/09/21 02:22:11;;;;;;;2.70;2.50;;;11.60;99.90;;;;;;6172612;23;20366;-88
2021/09/21 02:24:56;;;;;;;2.10;2.00;;;11.50;99.90;;;;;;6213834;23;20405;-85
2021/09/21 02:27:41;;;;;;;2.07;1.90;;;11.40;99.90;;;;;;6172500;23;20447;-87
2021/09/21 02:30:25;;;;;;;1.65;1.55;;;11.40;99.90;;;;;;6233050;23;20371;-88
2021/09/21 02:33:09;;;;;;;2.40;2.20;;;11.40;99.90;;;;;;6172371;23;20342;-89
2021/09/21 02:35:53;;;;;;;2.40;2.20;;;11.40;99.90;;;;;;6171830;23;20423;-86
2021/09/21 02:38:38;;;;;;;2.10;1.90;;;11.40;99.90;;;;;;6213382;23;20464;-88
2021/09/21 02:41:22;;;;;;;1.95;1.75;;;11.30;99.90;;;;;;6158683;23;20433;-86
2021/09/21 02:44:07;;;;;;;2.30;2.10;;;11.30;99.90;;;;;;6212558;23;20415;-89
2021/09/21 02:46:51;;;;;;;2.42;2.22;;;11.30;99.90;;;;;;6235502;23;20541;-90
2021/09/21 02:49:36;;;;;;;2.28;1.85;;;11.30;99.90;;;;;;6171620;22;20378;-88
2021/09/21 02:52:20;;;;;;;2.50;2.30;;;11.30;99.90;;;;;;6172043;23;20368;-89
2021/09/21 02:55:05;;;;;;;1.92;1.83;;;11.30;99.90;;;;;;6192690;23;20370;-90
2021/09/21 02:57:49;;;;;;;2.33;2.13;;;11.20;99.90;;;;;;6193552;23;20431;-88
2021/09/21 03:00:34;;;;;;;1.85;1.75;;;11.10;99.90;;;;;;6170762;23;20402;-86
2021/09/21 03:03:20;;;;;;;1.90;1.80;;;11.10;99.90;;;;;;6170679;23;20378;-84
2021/09/21 03:06:09;;;;;;;2.30;1.88;;;11.20;99.90;;;;;;6190891;23;20363;-90
2021/09/21 03:09:00;;;;;;;1.95;1.85;;;11.20;99.90;;;;;;6172533;23;20430;-89
2021/09/21 03:11:49;;;;;;;3.67;2.30;;;11.30;99.90;;;;;;6193801;23;20409;-88
2021/09/21 03:17:38;;;;;;;1.90;1.80;;;11.20;99.90;;;;;;6217031;23;20386;-89
2021/09/21 03:20:22;;;;;;;2.03;1.90;;;11.20;99.90;;;;;;6172389;23;20351;-89
2021/09/21 03:23:07;;;;;;;2.20;2.05;;;11.20;99.90;;;;;;6213389;23;20398;-89
2021/09/21 03:25:51;;;;;;;2.53;2.33;;;11.10;99.90;;;;;;6192754;23;20370;-84
2021/09/21 03:28:36;;;;;;;1.73;1.63;;;11.10;99.90;;;;;;6171638;23;20714;-89
2021/09/21 03:31:20;;;;;;;2.72;2.45;;;11.20;99.90;;;;;;6187331;23;20386;-89
2021/09/21 03:34:04;;;;;;;2.42;2.22;;;11.20;99.90;;;;;;6213496;23;20463;-87
2021/09/21 03:36:49;;;;;;;2.40;2.20;;;11.00;99.90;;;;;;6191737;23;20426;-88
2021/09/21 03:39:34;;;;;;;2.83;2.40;;;10.90;99.90;;;;;;6172059;23;20421;-89
2021/09/21 03:42:20;;;;;;;2.22;2.08;;;11.00;99.90;;;;;;6192434;23;20370;-89
2021/09/21 03:45:05;;;;;;;2.35;2.15;;;11.00;99.90;;;;;;6172119;23;20350;-90
2021/09/21 03:47:49;;;;;;;4.00;2.93;;;11.10;99.90;;;;;;6171126;23;20754;-86
2021/09/21 03:50:34;;;;;;;2.00;1.90;;;11.00;99.90;;;;;;6191353;23;20366;-88
2021/09/21 03:53:18;;;;;;;1.85;1.75;;;11.00;99.90;;;;;;6172192;23;20398;-85
2021/09/21 03:56:03;;;;;;;2.35;2.05;;;11.10;99.90;;;;;;6165626;23;20342;-90
2021/09/21 03:58:47;;;;;;;2.20;2.00;;;11.10;99.90;;;;;;6193394;23;20386;-87
2021/09/21 04:01:32;;;;;;;2.55;2.35;;;11.20;99.90;;;;;;6213982;23;20367;-87
2021/09/21 04:04:16;;;;;;;2.45;2.25;;;11.10;99.90;;;;;;6169944;23;20415;-88
2021/09/21 04:07:01;;;;;;;2.13;1.92;;;11.10;99.90;;;;;;6171380;23;20363;-88
2021/09/21 04:09:46;;;;;;;1.90;1.80;;;11.10;99.90;;;;;;6173532;23;20359;-87
2021/09/21 04:12:30;;;;;;;1.88;1.70;;;11.20;99.90;;;;;;6192553;23;20354;-88
2021/09/21 04:15:15;;;;;;;1.92;1.83;;;11.20;99.90;;;;;;6172521;23;20359;-87
2021/09/21 04:18:04;;;;;;;1.73;1.63;;;11.20;99.90;;;;;;6214661;23;20366;-89
2021/09/21 04:20:48;;;;;;;1.80;1.70;;;11.20;99.90;;;;;;6174868;23;20358;-88
2021/09/21 04:23:32;;;;;;;2.20;2.10;;;11.20;99.90;;;;;;6213273;23;20383;-88
2021/09/21 04:26:17;;;;;;;2.10;2.00;;;11.10;99.90;;;;;;6157701;23;20362;-88
2021/09/21 04:29:01;;;;;;;1.70;1.60;;;11.20;99.90;;;;;;6193293;23;20455;-87
2021/09/21 04:31:48;;;;;;;1.83;1.73;;;11.20;99.90;;;;;;6173495;23;20338;-84
2021/09/21 04:34:32;;;;;;;1.70;1.60;;;11.20;99.90;;;;;;6171300;23;20394;-86
2021/09/21 04:40:19;;;;;;;2.28;2.17;;;11.20;99.90;;;;;;6251226;22;20366;-84
2021/09/21 04:43:04;;;;;;;2.20;2.10;;;11.20;99.90;;;;;;6172822;23;20411;-87
2021/09/21 04:45:49;;;;;;;2.00;1.90;;;11.10;99.90;;;;;;6195814;23;20394;-86
2021/09/21 04:48:34;;;;;;;2.00;1.90;;;11.20;99.90;;;;;;6174547;23;20363;-84
2021/09/21 04:51:18;;;;;;;2.10;1.90;;;11.20;99.90;;;;;;6195696;23;20366;-84
2021/09/21 04:54:05;;;;;;;1.90;1.80;;;11.10;99.90;;;;;;6175002;23;20371;-88
2021/09/21 04:56:50;;;;;;;1.75;1.65;;;11.00;99.90;;;;;;6196000;23;20378;-86
2021/09/21 04:59:35;;;;;;;1.70;1.60;;;11.10;99.90;;;;;;6194998;23;20386;-88
2021/09/21 05:02:19;;;;;;;2.50;2.03;;;11.10;99.90;;;;;;6195577;23;20362;-86
2021/09/21 05:05:04;;;;;;;3.78;2.28;;;11.10;99.90;;;;;;6191794;23;20446;-88
2021/09/21 05:07:48;;;;;;;1.87;1.77;;;11.10;99.90;;;;;;6174513;23;20378;-84
2021/09/21 05:10:32;;;;;;;2.33;2.13;;;11.10;99.90;;;;;;6216557;23;20374;-88
2021/09/21 05:13:17;;;;;;;2.38;2.13;;;11.20;99.90;;;;;;6193989;23;20375;-87
2021/09/21 05:16:03;;;;;;;1.73;1.63;;;11.10;99.90;;;;;;6198343;22;20367;-87
2021/09/21 05:18:57;;;;;;;2.03;1.92;;;11.20;99.90;;;;;;6182001;22;20395;-90
2021/09/21 05:21:42;;;;;;;2.00;1.83;;;11.20;99.90;;;;;;6195923;23;20419;-88
2021/09/21 05:24:26;;;;;;;2.60;2.40;;;11.20;99.90;;;;;;6216295;23;20411;-89
2021/09/21 05:35:58;;;;;;;1.90;1.80;;;11.10;99.90;;;;;;6246939;22;20399;-89
2021/09/21 05:38:43;;;;;;;1.85;1.75;;;11.30;99.90;;;;;;6201567;22;20401;-88
2021/09/21 05:41:27;;;;;;;2.50;2.30;;;11.30;99.90;;;;;;6201896;22;20467;-89
2021/09/21 05:44:12;;;;;;;2.65;2.45;;;11.20;99.90;;;;;;6173919;23;20342;-89
2021/09/21 05:46:56;;;;;;;2.58;2.17;;;11.10;99.90;;;;;;6173862;23;20379;-89
2021/09/21 05:49:41;;;;;;;1.85;1.75;;;11.20;99.90;;;;;;6213154;23;20431;-90
2021/09/21 05:52:26;;;;;;;3.67;2.90;;;11.20;99.90;;;;;;6172067;22;20428;-89
2021/09/21 05:55:11;;;;;;;2.83;2.60;;;11.40;99.90;;;;;;6134279;23;20416;-89
2021/09/21 05:57:55;;;;;;;2.70;2.42;;;11.20;99.90;;;;;;6193716;23;20355;-88
2021/09/21 06:00:40;;;;;;;4.23;2.83;;;11.10;99.90;;;;;;6151786;23;20676;-88
2021/09/21 06:03:25;;;;;;;2.58;2.38;;;11.20;99.90;;;;;;6172977;23;20401;-89
2021/09/21 06:06:09;;;;;;;3.30;2.70;;;11.20;99.90;;;;;;6172732;23;20357;-88
2021/09/21 06:08:53;;;;;;;2.55;2.35;;;11.20;99.90;;;;;;6151470;23;20338;-87
2021/09/21 06:11:37;;;;;;;2.30;2.10;;;11.30;99.90;;;;;;6172025;23;20355;-89
2021/09/21 06:14:22;;;;;;;3.67;2.40;;;11.30;99.90;;;;;;6171754;23;20379;-88
2021/09/21 06:17:06;;;;;;;3.00;2.45;;;11.40;99.90;;;;;;6193562;23;20358;-88
2021/09/21 06:19:51;;;;;;;2.63;2.42;;;11.40;99.90;;;;;;6192868;23;23361;-89
2021/09/21 06:22:40;;;;;;;2.20;2.10;;;11.40;99.90;;;;;;6151996;23;20339;-89
2021/09/21 06:25:24;;;;;;;2.70;2.50;;;11.40;99.90;;;;;;6172351;23;20509;-88
2021/09/21 06:28:09;;;;;;;3.25;2.53;;;11.50;99.90;;;;;;6192011;23;20363;-88
2021/09/21 06:30:53;;;;;;;2.38;2.15;;;11.60;99.90;;;;;;6133725;23;20395;-89
2021/09/21 06:33:38;;;;;;;3.00;2.80;;;11.50;99.90;;;;;;6193465;23;20375;-84
2021/09/21 06:36:26;;;;;;;2.10;2.00;;;11.60;99.90;;;;;;6159273;23;20385;-88
2021/09/21 06:39:11;;;;;;;4.07;2.70;;;11.70;99.90;;;;;;6161933;23;20389;-88
2021/09/21 06:41:55;;;;;;;2.00;1.90;;;11.70;99.90;;;;;;6184490;23;20356;-88
2021/09/21 06:44:40;;;;;;;2.25;2.13;;;11.90;99.90;;;;;;6163675;23;20369;-88
2021/09/21 06:47:24;;;;;;;4.20;2.93;;;12.00;99.90;;;;;;6142250;23;20384;-87
2021/09/21 06:50:09;;;;;;;2.20;2.10;;;12.10;99.90;;;;;;6163375;23;20381;-89
2021/09/21 06:52:54;;;;;;;4.95;3.33;;;12.20;99.90;;;;;;6142914;23;20365;-87
2021/09/21 06:55:38;;;;;;;2.35;2.15;;;12.30;99.90;;;;;;6162543;23;20691;-90
2021/09/21 06:58:23;;;;;;;3.03;2.83;;;12.40;99.90;;;;;;6122251;23;20448;-90
2021/09/21 07:01:08;;;;;;;2.65;2.45;;;12.40;99.90;;;;;;6142209;23;20368;-90
2021/09/21 07:03:54;;;;;;;2.72;2.53;;;12.50;99.90;;;;;;6123608;23;20380;-89
2021/09/21 07:06:39;;;;;;;2.35;2.25;;;12.80;99.90;;;;;;6163718;23;20373;-89
2021/09/21 07:09:23;;;;;;;3.47;2.72;;;12.70;99.90;;;;;;6141343;23;20364;-89
2021/09/21 07:12:08;;;;;;;2.60;2.40;;;12.90;99.90;;;;;;6144054;23;20440;-89
2021/09/21 07:14:52;;;;;;;3.00;2.70;;;13.10;99.90;;;;;;6164549;23;20400;-89
2021/09/21 07:17:37;;;;;;;3.05;2.70;;;13.10;99.90;;;;;;6144845;23;20384;-89
2021/09/21 07:20:22;;;;;;;2.58;2.38;;;13.30;99.90;;;;;;6124638;23;20412;-90
2021/09/21 07:23:06;;;;;;;2.50;2.30;;;13.50;99.90;;;;;;6143267;23;20364;-88
2021/09/21 07:25:51;;;;;;;3.45;3.03;;;13.50;99.90;;;;;;6164535;23;20422;-88
2021/09/21 07:28:35;;;;;;;2.73;2.53;;;13.50;99.90;;;;;;6145043;23;20360;-89
2021/09/21 07:31:21;;;;;;;3.22;2.92;;;13.50;99.90;;;;;;6123721;23;20361;-92
2021/09/21 07:34:05;;;;;;;2.58;2.38;;;13.50;99.90;;;;;;6144827;23;20364;-91
2021/09/21 07:36:52;;;;;;;2.40;2.20;;;13.60;99.90;;;;;;6124313;23;20405;-92
2021/09/21 07:39:36;;;;;;;2.80;2.60;;;13.70;99.90;;;;;;6145440;23;20388;-90
2021/09/21 07:42:21;;;;;;;2.88;2.42;;;13.80;99.90;;;;;;6143804;23;20405;-90
2021/09/21 07:45:06;;;;;;;2.83;2.60;;;13.90;99.90;;;;;;6166060;23;20372;-88
2021/09/21 07:47:52;;;;;;;2.75;2.53;;;14.00;99.90;;;;;;6165306;23;20380;-92
2021/09/21 07:50:36;;;;;;;3.03;2.73;;;14.20;99.90;;;;;;6145019;23;20364;-90
2021/09/21 07:53:21;;;;;;;2.90;2.70;;;14.20;99.90;;;;;;6145529;23;20360;-90
2021/09/21 07:56:07;;;;;;;3.40;2.63;;;14.10;99.90;;;;;;6165840;23;20361;-90
2021/09/21 07:58:52;;;;;;;2.63;2.42;;;14.20;99.90;;;;;;6144930;23;20465;-93
2021/09/21 08:01:37;;;;;;;3.27;2.67;;;14.20;99.90;;;;;;6124697;23;20368;-90
2021/09/21 08:04:21;;;;;;;3.88;2.88;;;14.30;99.90;;;;;;6145201;23;20366;-92
2021/09/21 08:07:09;;;;;;;2.97;2.67;;;14.40;99.90;;;;;;6145453;23;20357;-91
2021/09/21 08:09:53;;;;;;;2.80;2.60;;;14.40;99.90;;;;;;6164872;23;20379;-89
2021/09/21 08:12:38;;;;;;;2.93;2.63;;;14.40;99.90;;;;;;6144410;23;20390;-91
2021/09/21 08:15:25;;;;;;;2.83;2.63;;;14.60;99.90;;;;;;6186096;23;20376;-90
2021/09/21 08:18:10;;;;;;;3.13;2.67;;;14.50;99.90;;;;;;6146385;23;20359;-87
2021/09/21 08:20:54;;;;;;;3.10;2.80;;;14.80;99.90;;;;;;6123707;23;20403;-91
2021/09/21 08:23:38;;;;;;;2.70;2.40;;;14.80;99.90;;;;;;6165575;23;20361;-90
2021/09/21 08:26:23;;;;;;;2.75;2.50;;;15.00;99.90;;;;;;6125947;23;20379;-92
2021/09/21 08:29:07;;;;;;;2.55;2.28;;;15.10;99.90;;;;;;6146563;23;20392;-90
2021/09/21 08:31:52;;;;;;;2.20;2.10;;;15.10;99.90;;;;;;6145808;23;20832;-93
2021/09/21 08:34:38;;;;;;;2.67;2.47;;;15.10;99.90;;;;;;6143162;23;20376;-90
2021/09/21 08:37:22;;;;;;;2.42;2.22;;;15.20;99.90;;;;;;6165732;23;20359;-94
2021/09/21 08:40:07;;;;;;;2.53;2.33;;;15.40;99.90;;;;;;6125402;23;20454;-91
2021/09/21 08:42:52;;;;;;;3.20;2.90;;;15.30;99.90;;;;;;6123603;23;20416;-93
2021/09/21 08:45:36;;;;;;;8.63;2.72;;;15.40;99.90;;;;;;6120572;23;20392;-89
2021/09/21 08:48:21;;;;;;;4.93;4.43;;;15.70;99.90;;;;;;6134664;23;20428;-91
2021/09/21 08:51:05;;;;;;;3.58;2.97;;;16.00;99.90;;;;;;6135174;23;20377;-92
2021/09/21 08:53:49;;;;;;;5.32;4.80;;;16.20;99.90;;;;;;6138445;23;20377;-94
2021/09/21 08:56:33;;;;;;;4.18;3.15;;;16.30;99.90;;;;;;6142981;23;20377;-91
2021/09/21 08:59:30;;;;;;;2.40;2.25;;;16.40;99.90;;;;;;6160181;23;20388;-93
2021/09/21 09:03:10;;;;;;;1.80;1.70;;;16.60;99.90;;;;;;6163948;23;20368;-91
2021/09/21 09:42:33;;;;;;;2.95;2.33;;;16.40;99.90;;;;;;6236699;22;20367;-91
2021/09/21 09:45:32;;;;;;;1.50;1.40;;;16.50;99.90;;;;;;6174493;22;20402;-93
2021/09/21 09:48:18;;;;;;;3.25;1.60;;;16.60;99.90;;;;;;6174758;22;20374;-90
2021/09/21 09:51:05;;;;;;;2.45;1.35;;;16.70;99.90;;;;;;6154627;22;20346;-92
2021/09/21 09:53:50;;;;;;;1.97;1.77;;;16.90;99.90;;;;;;6175065;23;20411;-92
2021/09/21 09:56:34;;;;;;;2.08;1.88;;;16.90;99.90;;;;;;6152024;23;20362;-93
2021/09/21 09:59:18;;;;;;;2.00;1.90;;;17.00;99.90;;;;;;6174301;22;20442;-94
2021/09/21 10:02:03;;;;;;;2.22;1.77;;;17.00;99.90;;;;;;6175022;22;20390;-92
2021/09/21 10:04:47;;;;;;;1.75;1.65;;;17.00;99.90;;;;;;6173733;22;20375;-90
2021/09/21 10:07:32;;;;;;;1.92;1.80;;;17.10;99.90;;;;;;6154387;22;20374;-94
2021/09/21 10:10:17;;;;;;;1.97;1.87;;;17.00;99.90;;;;;;6173911;22;20367;-89
2021/09/21 10:13:04;;;;;;;4.10;3.80;;;16.60;99.90;;;;;;6177042;22;20435;-92
2021/09/21 10:15:48;;;;;;;2.00;1.80;;;16.70;99.90;;;;;;6175951;22;20351;-91
2021/09/21 10:18:44;;;;;;;1.73;1.63;;;16.70;99.90;;;;;;6196066;22;20386;-91
2021/09/21 10:21:36;;;;;;;1.90;1.55;;;17.00;99.90;;;;;;6176215;22;20350;-91
2021/09/21 10:25:00;;;;;;;1.75;1.65;;;17.50;99.90;;;;;;6173428;22;20371;-92
2021/09/21 10:27:46;;;;;;;1.70;1.60;;;17.30;99.90;;;;;;6218687;22;20338;-92
2021/09/21 10:30:30;;;;;;;1.43;1.33;;;17.60;99.90;;;;;;6195934;22;20347;-91
2021/09/21 10:33:17;;;;;;;1.70;1.60;;;17.70;99.90;;;;;;6174611;22;20358;-93
2021/09/21 10:36:01;;;;;;;1.60;1.50;;;17.60;99.90;;;;;;6154943;22;20378;-91
2021/09/21 10:39:07;;;;;;;2.25;1.70;;;17.60;99.90;;;;;;6175555;22;20375;-93
2021/09/21 10:41:59;;;;;;;1.80;1.40;;;17.90;99.90;;;;;;6185028;23;20386;-92
2021/09/21 10:44:54;;;;;;;1.60;1.50;;;18.10;99.90;;;;;;6195173;23;20435;-91
2021/09/21 10:47:40;;;;;;;1.98;1.52;;;18.00;99.90;;;;;;6190573;23;20450;-91
2021/09/21 10:50:24;;;;;;;1.63;1.52;;;17.90;99.90;;;;;;6188296;23;20379;-93
2021/09/21 10:53:09;;;;;;;1.83;1.70;;;18.00;99.90;;;;;;6208340;23;20363;-92
2021/09/21 10:56:09;;;;;;;1.63;1.47;;;17.90;99.90;;;;;;6188052;23;20370;-93
2021/09/21 10:58:55;;;;;;;2.00;1.90;;;18.10;99.90;;;;;;6209547;23;20535;-90
2021/09/21 11:01:47;;;;;;;2.00;1.50;;;18.00;99.90;;;;;;6189810;23;20395;-91
2021/09/21 11:04:42;;;;;;;1.33;1.25;;;18.20;99.90;;;;;;6190907;23;20912;-93
2021/09/21 11:07:27;;;;;;;2.35;1.60;;;18.10;99.90;;;;;;6188944;23;20457;-93
2021/09/21 11:10:12;;;;;;;1.50;1.40;;;18.30;99.90;;;;;;6209920;23;20375;-92
2021/09/21 11:12:57;;;;;;;1.50;1.40;;;18.30;99.90;;;;;;6190051;22;20457;-91
2021/09/21 11:15:41;;;;;;;1.60;1.50;;;18.20;99.90;;;;;;6172127;23;20376;-89
2021/09/21 11:18:26;;;;;;;1.58;1.42;;;18.50;99.90;;;;;;6172197;23;20437;-91
2021/09/21 11:21:11;;;;;;;1.60;1.48;;;18.70;99.90;;;;;;6174690;23;20710;-92
2021/09/21 11:23:55;;;;;;;1.55;1.45;;;18.60;99.90;;;;;;6175130;23;20380;-89
2021/09/21 11:26:41;;;;;;;1.53;1.43;;;18.50;99.90;;;;;;6174660;23;20373;-91
2021/09/21 11:29:26;;;;;;;1.38;1.27;;;18.40;99.90;;;;;;6173497;23;20457;-92
2021/09/21 11:32:20;;;;;;;1.50;1.40;;;18.40;99.90;;;;;;6173781;23;20368;-93
2021/09/21 11:35:12;;;;;;;1.83;1.70;;;18.20;99.90;;;;;;6171274;23;20361;-92
2021/09/21 11:37:56;;;;;;;2.28;1.50;;;18.10;99.90;;;;;;6192179;23;20409;-93
2021/09/21 11:40:43;;;;;;;1.63;1.53;;;17.50;99.90;;;;;;6214855;23;20364;-91
2021/09/21 11:43:29;;;;;;;1.48;1.38;;;17.30;99.90;;;;;;6174515;23;20801;-93
2021/09/21 11:46:14;;;;;;;1.50;1.40;;;17.00;99.90;;;;;;6192691;23;20364;-93
2021/09/21 11:48:59;;;;;;;1.95;1.60;;;17.10;99.90;;;;;;6172250;23;20349;-91
2021/09/21 11:51:43;;;;;;;1.27;1.27;;;17.00;99.90;;;;;;6172866;23;21004;-91
2021/09/21 11:54:30;;;;;;;1.60;1.50;;;16.90;99.90;;;;;;6172427;23;20364;-91
2021/09/21 11:57:14;;;;;;;1.23;1.13;;;17.00;99.90;;;;;;6156180;23;20737;-89
2021/09/21 11:59:59;;;;;;;1.73;1.40;;;17.10;99.90;;;;;;6235740;23;20376;-92
2021/09/21 12:02:43;;;;;;;0.98;0.98;;;17.20;99.90;;;;;;6172222;23;20408;-91
2021/09/21 12:05:30;;;;;;;1.50;1.40;;;17.10;99.90;;;;;;6173013;23;20365;-92
2021/09/21 12:08:42;;;;;;;1.52;1.42;;;17.20;99.90;;;;;;6172037;23;20377;-93
2021/09/21 12:11:27;;;;;;;1.20;1.10;;;17.20;99.90;;;;;;6192737;23;20452;-90
2021/09/21 12:14:11;;;;;;;1.10;1.10;;;17.20;99.90;;;;;;6172498;23;20389;-90
2021/09/21 12:16:56;;;;;;;1.37;1.27;;;17.20;99.90;;;;;;6193685;23;20403;-90
2021/09/21 12:19:43;;;;;;;1.70;1.20;;;16.90;99.90;;;;;;6172857;23;20981;-90
2021/09/21 12:22:27;;;;;;;2.83;1.50;;;17.00;99.90;;;;;;6192066;23;20388;-90
2021/09/21 12:25:12;;;;;;;1.15;1.15;;;17.00;99.90;;;;;;6173908;23;20465;-90
2021/09/21 12:27:56;;;;;;;1.30;1.20;;;17.00;99.90;;;;;;6174113;23;20399;-90
2021/09/21 12:30:42;;;;;;;1.73;1.27;;;17.00;99.90;;;;;;6173246;23;20413;-93
2021/09/21 12:33:26;;;;;;;1.38;1.23;;;17.00;99.90;;;;;;6172277;23;20393;-90
2021/09/21 12:36:30;;;;;;;1.17;1.17;;;17.10;99.90;;;;;;6192125;23;20795;-88
2021/09/21 12:39:19;;;;;;;1.33;1.20;;;17.10;99.90;;;;;;6189271;23;20428;-91
2021/09/21 12:42:03;;;;;;;1.27;1.20;;;17.20;99.90;;;;;;6192431;23;20373;-90
2021/09/21 12:44:48;;;;;;;1.23;1.17;;;16.90;99.90;;;;;;6193778;23;20365;-90
2021/09/21 12:47:33;;;;;;;1.33;1.23;;;17.00;99.90;;;;;;6193332;23;20413;-91
2021/09/21 12:50:20;;;;;;;1.10;1.10;;;16.60;99.90;;;;;;6172397;23;20372;-90
2021/09/21 12:53:05;;;;;;;1.15;1.15;;;16.70;99.90;;;;;;6172952;23;20430;-89
2021/09/21 12:55:56;;;;;;;1.35;1.25;;;16.60;99.90;;;;;;6172245;23;20403;-88
2021/09/21 12:58:42;;;;;;;1.25;1.20;;;16.50;99.90;;;;;;6212821;23;20397;-90
2021/09/21 13:01:26;;;;;;;1.50;1.40;;;16.80;99.90;;;;;;6171463;23;20365;-91
2021/09/21 13:04:11;;;;;;;4.10;1.40;;;17.00;99.90;;;;;;6192884;23;20357;-91
2021/09/21 13:06:55;;;;;;;1.45;1.30;;;17.00;99.90;;;;;;6173492;23;20373;-90
2021/09/21 13:09:40;;;;;;;3.03;1.42;;;17.10;99.90;;;;;;6170898;23;20423;-90
2021/09/21 13:12:27;;;;;;;1.50;1.40;;;17.30;99.90;;;;;;6173092;23;20357;-88
2021/09/21 13:15:11;;;;;;;1.40;1.30;;;17.30;99.90;;;;;;6185919;23;20403;-89
2021/09/21 13:17:55;;;;;;;1.40;1.30;;;17.20;99.90;;;;;;6164649;23;20902;-89
2021/09/21 13:20:40;;;;;;;1.38;1.27;;;17.30;99.90;;;;;;6162982;23;20428;-90
2021/09/21 13:23:24;;;;;;;1.65;1.38;;;16.80;99.90;;;;;;6165895;23;20375;-91
2021/09/21 13:26:08;;;;;;;1.63;1.52;;;16.60;99.90;;;;;;6171043;23;20383;-89
2021/09/21 13:28:53;;;;;;;1.25;1.25;;;16.50;99.90;;;;;;6173525;23;20378;-91
2021/09/21 13:31:37;;;;;;;1.10;1.10;;;16.40;99.90;;;;;;6191914;23;20402;-91
2021/09/21 13:34:22;;;;;;;1.42;1.33;;;16.60;99.90;;;;;;6172071;23;20370;-91
2021/09/21 13:37:06;;;;;;;5.60;1.50;;;16.60;99.90;;;;;;6188666;23;20362;-92
2021/09/21 13:39:52;;;;;;;1.40;1.30;;;16.70;99.90;;;;;;6170682;23;20359;-91
2021/09/21 13:42:37;;;;;;;1.42;1.33;;;16.70;99.90;;;;;;6168263;23;20410;-92
2021/09/21 13:45:24;;;;;;;1.13;1.13;;;16.80;99.90;;;;;;6213149;23;20363;-92
2021/09/21 13:48:09;;;;;;;1.40;1.30;;;16.80;99.90;;;;;;6170556;23;20367;-91
2021/09/21 13:50:53;;;;;;;1.30;1.20;;;17.00;99.90;;;;;;6171491;23;20350;-92
2021/09/21 13:53:40;;;;;;;1.40;1.30;;;16.90;99.90;;;;;;6172769;23;20379;-93
2021/09/21 13:56:25;;;;;;;1.70;1.60;;;16.80;99.90;;;;;;6192819;23;20363;-90
2021/09/21 13:59:10;;;;;;;1.70;1.60;;;16.50;99.90;;;;;;6212575;23;20394;-90
2021/09/21 14:02:03;;;;;;;1.65;1.30;;;16.20;99.90;;;;;;6214663;23;20370;-90
2021/09/21 14:04:48;;;;;;;1.17;1.13;;;16.10;99.90;;;;;;6193233;23;20418;-91
2021/09/21 14:07:35;;;;;;;1.40;1.30;;;16.00;99.90;;;;;;6232711;22;20382;-91
2021/09/21 14:10:20;;;;;;;1.27;1.25;;;15.90;99.90;;;;;;6218761;23;20375;-90
2021/09/21 14:13:04;;;;;;;1.40;1.30;;;15.90;99.90;;;;;;6149697;23;20384;-91
2021/09/21 14:15:59;;;;;;;1.50;1.40;;;16.00;99.90;;;;;;6152559;23;20358;-91
2021/09/21 14:50:55;;;;;;;1.30;1.30;;;15.80;99.90;;;;;;6257185;22;20366;-93
2021/09/21 14:53:40;;;;;;;1.30;1.20;;;15.90;99.90;;;;;;6169095;23;20424;-92
2021/09/21 14:56:24;;;;;;;2.05;1.55;;;15.90;99.90;;;;;;6209399;23;20725;-91
2021/09/21 14:59:11;;;;;;;1.67;1.58;;;15.90;99.90;;;;;;6206103;23;20390;-93
2021/09/21 15:02:13;;;;;;;1.65;1.55;;;15.90;99.90;;;;;;6199412;23;20386;-90
2021/09/21 15:05:27;;;;;;;1.55;1.45;;;15.50;99.90;;;;;;6220587;22;20411;-90
2021/09/21 15:08:40;;;;;;;1.85;1.50;;;15.50;99.90;;;;;;6197398;23;21143;-92
2021/09/21 15:40:23;;;;;;;1.23;1.17;;;14.90;99.90;;;;;;6204199;22;20369;-91
2021/09/21 15:44:11;;;;;;;1.58;1.48;;;15.00;99.90;;;;;;6196346;23;20474;-91
2021/09/21 15:47:22;;;;;;;1.23;1.23;;;14.90;99.90;;;;;;6239516;23;20358;-90
2021/09/21 15:51:01;;;;;;;1.70;1.60;;;14.80;99.90;;;;;;6168585;22;20381;-91
2021/09/21 15:54:04;;;;;;;2.08;1.40;;;14.90;99.90;;;;;;6168769;22;20396;-92
2021/09/21 15:57:11;;;;;;;1.77;1.40;;;14.90;99.90;;;;;;6133341;22;20377;-89
2021/09/21 16:00:30;;;;;;;2.20;1.70;;;14.80;99.90;;;;;;6202647;22;20416;-91
2021/09/21 16:03:48;;;;;;;2.40;2.20;;;14.60;99.90;;;;;;6234713;22;20378;-90
2021/09/21 16:21:23;;;;;;;1.20;1.20;;;14.40;99.90;;;;;;6181722;23;20372;-91
2021/09/21 16:24:20;;;;;;;1.52;1.42;;;14.40;99.90;;;;;;6195327;23;20360;-89
2021/09/21 16:27:08;;;;;;;3.38;1.63;;;14.30;99.90;;;;;;6179307;22;20463;-93
2021/09/21 16:29:53;;;;;;;1.67;1.58;;;14.30;99.90;;;;;;6176337;23;20450;-90
2021/09/21 16:44:21;;;;;;;1.98;1.88;;;13.90;99.90;;;;;;6189545;22;20379;-86
2021/09/21 16:47:06;;;;;;;7.72;1.63;;;13.90;99.90;;;;;;6213034;22;20386;-91
2021/09/21 16:50:04;;;;;;;1.85;1.67;;;13.80;99.90;;;;;;6196910;22;21279;-88
2021/09/21 16:52:49;;;;;;;1.67;1.58;;;13.90;99.90;;;;;;6182762;22;20380;-87
2021/09/21 16:55:34;;;;;;;1.83;1.73;;;14.00;99.90;;;;;;6183546;22;20357;-85